createdAt,value
2023-03-27T00:01:28.365Z,8.95
2023-03-27T00:03:55.979Z,8.91
2023-03-27T00:06:25.451Z,8.92
2023-03-27T00:08:52.686Z,8.98
2023-03-27T00:11:20.617Z,9.00
2023-03-27T00:13:51.334Z,9.01
2023-03-27T00:16:19.882Z,9.02
2023-03-27T00:18:47.128Z,9.02
2023-03-27T00:21:14.597Z,8.96
2023-03-27T00:23:42.923Z,8.95
2023-03-27T00:26:12.313Z,8.93
2023-03-27T00:28:39.746Z,8.91
2023-03-27T00:31:10.560Z,8.90
2023-03-27T00:33:38.309Z,8.86
2023-03-27T00:36:05.727Z,8.81
2023-03-27T00:38:34.434Z,8.83
2023-03-27T00:41:01.755Z,8.87
2023-03-27T00:43:30.468Z,8.86
2023-03-27T00:46:01.858Z,8.86
2023-03-27T00:48:31.422Z,8.87
2023-03-27T00:50:58.863Z,8.86
2023-03-27T00:53:28.222Z,8.88
2023-03-27T00:55:56.848Z,8.88
2023-03-27T00:58:28.466Z,8.87
2023-03-27T01:00:57.057Z,8.86
2023-03-27T01:03:27.496Z,8.83
2023-03-27T01:05:55.908Z,8.80
2023-03-27T01:08:23.343Z,8.75
2023-03-27T01:10:50.926Z,8.75
2023-03-27T01:13:27.543Z,8.73
2023-03-27T01:16:02.211Z,8.76
2023-03-27T01:18:32.464Z,8.77
2023-03-27T01:21:02.942Z,8.78
2023-03-27T01:23:35.862Z,8.85
2023-03-27T01:26:35.216Z,8.87
2023-03-27T01:29:07.424Z,8.84
2023-03-27T01:31:35.004Z,8.82
2023-03-27T01:34:05.176Z,8.78
2023-03-27T01:36:32.655Z,8.77
2023-03-27T01:39:03.231Z,8.77
2023-03-27T01:41:32.773Z,8.79
2023-03-27T01:44:05.108Z,8.77
2023-03-27T01:46:32.722Z,8.76
2023-03-27T01:49:03.403Z,8.74
2023-03-27T01:51:33.536Z,8.73
2023-03-27T01:54:05.529Z,8.73
2023-03-27T01:56:38.038Z,8.73
2023-03-27T01:59:09.916Z,8.73
2023-03-27T02:01:39.590Z,8.74
2023-03-27T02:04:10.124Z,8.75
2023-03-27T02:06:40.549Z,8.74
2023-03-27T02:09:11.817Z,8.67
2023-03-27T02:11:41.966Z,8.62
2023-03-27T02:14:12.944Z,8.57
2023-03-27T02:16:43.017Z,8.59
2023-03-27T02:19:14.636Z,8.61
2023-03-27T02:21:42.141Z,8.59
2023-03-27T02:24:09.492Z,8.61
2023-03-27T02:26:36.994Z,8.57
2023-03-27T02:29:05.510Z,8.55
2023-03-27T02:31:41.737Z,8.56
2023-03-27T02:34:12.383Z,8.53
2023-03-27T02:36:43.889Z,8.49
2023-03-27T02:39:14.017Z,8.47
2023-03-27T02:41:44.370Z,8.44
2023-03-27T02:44:12.802Z,8.43
2023-03-27T02:46:44.796Z,8.43
2023-03-27T02:49:16.934Z,8.41
2023-03-27T02:51:48.365Z,8.39
2023-03-27T02:54:17.657Z,8.38
2023-03-27T02:56:47.629Z,8.41
2023-03-27T02:59:19.844Z,8.41
2023-03-27T03:01:47.352Z,8.40
2023-03-27T03:04:18.475Z,8.41
2023-03-27T03:06:45.931Z,8.39
2023-03-27T03:09:13.722Z,8.37
2023-03-27T03:11:46.791Z,8.38
2023-03-27T03:14:14.115Z,8.37
2023-03-27T03:16:41.623Z,8.35
2023-03-27T03:19:09.367Z,8.36
2023-03-27T03:21:36.845Z,8.35
2023-03-27T03:24:04.023Z,8.36
2023-03-27T03:26:31.250Z,8.33
2023-03-27T03:29:00.310Z,8.31
2023-03-27T03:31:28.431Z,8.28
2023-03-27T03:33:55.613Z,8.29
2023-03-27T03:36:22.791Z,8.29
2023-03-27T03:38:49.972Z,8.27
2023-03-27T03:41:17.364Z,8.28
2023-03-27T03:43:44.431Z,8.25
2023-03-27T03:46:11.509Z,8.21
2023-03-27T03:48:38.636Z,8.20
2023-03-27T03:51:06.076Z,8.18
2023-03-27T03:53:33.501Z,8.15
2023-03-27T03:56:00.557Z,8.09
2023-03-27T03:58:34.450Z,8.04
2023-03-27T04:01:03.417Z,8.00
2023-03-27T04:03:33.879Z,8.01
2023-03-27T04:06:01.551Z,7.98
2023-03-27T04:08:28.752Z,7.95
2023-03-27T04:10:56.138Z,7.94
2023-03-27T04:13:23.584Z,7.94
2023-03-27T04:15:51.908Z,7.91
2023-03-27T04:18:20.153Z,7.89
2023-03-27T04:20:50.628Z,7.92
2023-03-27T04:23:19.099Z,7.93
2023-03-27T04:25:47.792Z,7.94
2023-03-27T04:28:18.567Z,7.92
2023-03-27T04:30:50.738Z,7.89
2023-03-27T04:33:19.068Z,7.88
2023-03-27T04:35:46.954Z,7.86
2023-03-27T04:38:34.616Z,7.84
2023-03-27T04:41:02.456Z,7.81
2023-03-27T04:43:29.647Z,7.80
2023-03-27T04:45:57.414Z,7.80
2023-03-27T04:48:24.714Z,7.85
2023-03-27T04:50:51.911Z,7.84
2023-03-27T04:53:20.882Z,7.81
2023-03-27T04:55:51.626Z,7.79
2023-03-27T04:58:19.340Z,7.79
2023-03-27T05:00:50.916Z,7.82
2023-03-27T05:03:21.333Z,7.82
2023-03-27T05:05:50.166Z,7.85
2023-03-27T05:08:17.552Z,7.85
2023-03-27T05:10:45.354Z,7.86
2023-03-27T05:13:12.878Z,7.85
2023-03-27T05:15:39.938Z,7.87
2023-03-27T05:18:07.684Z,7.86
2023-03-27T05:20:35.426Z,7.83
2023-03-27T05:23:02.636Z,7.83
2023-03-27T05:25:30.446Z,7.81
2023-03-27T05:27:58.752Z,7.80
2023-03-27T05:30:27.204Z,7.73
2023-03-27T05:32:54.665Z,7.71
2023-03-27T05:35:23.961Z,7.68
2023-03-27T05:37:53.213Z,7.67
2023-03-27T05:40:22.926Z,7.68
2023-03-27T05:42:50.948Z,7.69
2023-03-27T05:45:18.367Z,7.66
2023-03-27T05:47:46.043Z,7.65
2023-03-27T05:50:14.786Z,7.67
2023-03-27T05:52:42.266Z,7.66
2023-03-27T05:55:09.581Z,7.66
2023-03-27T05:57:38.779Z,7.64
2023-03-27T06:00:10.953Z,7.65
2023-03-27T06:02:39.516Z,7.64
2023-03-27T06:05:13.851Z,7.62
2023-03-27T06:07:43.133Z,7.57
2023-03-27T06:10:13.334Z,7.50
2023-03-27T06:12:42.137Z,7.42
2023-03-27T06:15:09.855Z,7.41
2023-03-27T06:17:39.273Z,7.42
2023-03-27T06:20:11.267Z,7.42
2023-03-27T06:22:42.751Z,7.46
2023-03-27T06:25:10.344Z,7.48
2023-03-27T06:27:38.521Z,7.50
2023-03-27T06:30:06.332Z,7.50
2023-03-27T06:32:33.521Z,7.52
2023-03-27T06:35:00.618Z,7.56
2023-03-27T06:37:27.932Z,7.61
2023-03-27T06:39:55.502Z,7.68
2023-03-27T06:42:22.829Z,7.69
2023-03-27T06:44:50.775Z,7.72
2023-03-27T06:47:18.363Z,7.74
2023-03-27T06:49:48.211Z,7.79
2023-03-27T06:52:15.680Z,7.84
2023-03-27T06:54:42.856Z,7.85
2023-03-27T06:57:09.938Z,7.87
2023-03-27T06:59:37.093Z,7.95
2023-03-27T07:02:04.563Z,8.02
2023-03-27T07:04:32.087Z,8.04
2023-03-27T07:06:59.419Z,8.05
2023-03-27T07:09:26.674Z,8.08
2023-03-27T07:11:54.586Z,8.16
2023-03-27T07:14:21.739Z,8.21
2023-03-27T07:16:48.978Z,8.24
2023-03-27T07:19:16.362Z,8.37
2023-03-27T07:21:43.638Z,8.92
2023-03-27T07:24:10.800Z,9.60
2023-03-27T07:26:37.869Z,9.83
2023-03-27T07:29:06.486Z,9.77
2023-03-27T07:31:55.003Z,9.68
2023-03-27T07:34:21.436Z,9.80
2023-03-27T07:36:49.460Z,9.94
2023-03-27T07:39:16.683Z,9.93
2023-03-27T07:41:44.070Z,9.88
2023-03-27T07:44:11.770Z,10.04
2023-03-27T07:46:38.929Z,10.07
2023-03-27T07:49:06.132Z,10.19
2023-03-27T07:51:33.564Z,10.39
2023-03-27T07:54:04.762Z,10.60
2023-03-27T07:56:34.675Z,10.80
2023-03-27T07:59:02.080Z,11.06
2023-03-27T08:01:29.700Z,11.52
2023-03-27T08:03:58.379Z,11.91
2023-03-27T08:06:44.328Z,11.92
2023-03-27T08:09:13.181Z,12.16
2023-03-27T08:11:41.688Z,11.93
2023-03-27T08:14:09.843Z,11.53
2023-03-27T08:16:51.529Z,11.25
2023-03-27T08:19:19.303Z,10.92
2023-03-27T08:21:46.389Z,10.75
2023-03-27T08:24:13.582Z,10.54
2023-03-27T08:26:40.846Z,10.40
2023-03-27T08:29:08.778Z,10.38
2023-03-27T08:31:36.131Z,10.44
2023-03-27T08:34:03.320Z,10.39
2023-03-27T08:36:34.904Z,10.35
2023-03-27T08:39:03.265Z,10.32
2023-03-27T08:41:34.320Z,10.28
2023-03-27T08:44:05.672Z,10.31
2023-03-27T08:46:39.321Z,10.31
2023-03-27T08:49:07.545Z,10.32
2023-03-27T08:51:39.099Z,10.29
2023-03-27T08:54:09.377Z,10.23
2023-03-27T08:56:37.771Z,10.23
2023-03-27T08:59:06.325Z,10.19
2023-03-27T09:01:33.989Z,10.11
2023-03-27T09:04:02.306Z,10.07
2023-03-27T09:06:39.763Z,10.08
2023-03-27T09:09:07.765Z,10.05
2023-03-27T09:11:35.267Z,9.98
2023-03-27T09:14:10.117Z,10.02
2023-03-27T09:16:57.209Z,10.03
2023-03-27T09:19:28.709Z,10.00
2023-03-27T09:21:58.840Z,10.04
2023-03-27T09:24:29.813Z,10.05
2023-03-27T09:27:14.859Z,10.08
2023-03-27T09:29:42.648Z,10.09
2023-03-27T09:32:15.035Z,10.11
2023-03-27T09:34:42.776Z,10.14
2023-03-27T09:37:12.394Z,10.21
2023-03-27T09:39:43.288Z,10.22
2023-03-27T09:42:17.511Z,10.22
2023-03-27T09:44:46.749Z,10.26
2023-03-27T09:47:16.511Z,10.33
2023-03-27T09:49:47.052Z,10.43
2023-03-27T09:52:34.050Z,10.50
2023-03-27T09:55:01.162Z,10.56
2023-03-27T09:57:32.690Z,10.60
2023-03-27T10:00:08.102Z,10.67
2023-03-27T10:02:35.333Z,10.71
2023-03-27T10:05:03.933Z,10.75
2023-03-27T10:07:31.424Z,10.75
2023-03-27T10:10:01.667Z,10.76
2023-03-27T10:12:28.854Z,10.79
2023-03-27T10:14:56.919Z,10.80
2023-03-27T10:17:26.611Z,10.76
2023-03-27T10:19:55.767Z,10.73
2023-03-27T10:22:26.005Z,10.77
2023-03-27T10:24:53.836Z,10.84
2023-03-27T10:27:23.960Z,10.91
2023-03-27T10:29:52.039Z,10.99
2023-03-27T10:32:19.566Z,11.02
2023-03-27T10:34:49.803Z,10.95
2023-03-27T10:37:20.894Z,10.86
2023-03-27T10:39:48.237Z,10.83
2023-03-27T10:42:17.228Z,10.81
2023-03-27T10:44:46.465Z,10.82
2023-03-27T10:47:17.107Z,10.87
2023-03-27T10:49:48.992Z,11.03
2023-03-27T10:52:19.302Z,11.07
2023-03-27T10:54:55.058Z,11.01
2023-03-27T10:57:25.320Z,11.03
2023-03-27T10:59:57.507Z,11.07
2023-03-27T11:02:32.126Z,11.10
2023-03-27T11:05:03.372Z,11.22
2023-03-27T11:07:34.248Z,11.29
2023-03-27T11:10:03.344Z,11.37
2023-03-27T11:12:33.154Z,11.45
2023-03-27T11:15:04.869Z,11.52
2023-03-27T11:17:36.718Z,11.52
2023-03-27T11:20:08.998Z,11.49
2023-03-27T11:22:39.204Z,11.41
2023-03-27T11:25:08.447Z,11.42
2023-03-27T11:27:36.184Z,11.48
2023-03-27T11:30:05.159Z,11.57
2023-03-27T11:32:38.350Z,11.65
2023-03-27T11:35:09.553Z,11.65
2023-03-27T11:37:40.090Z,11.61
2023-03-27T11:40:11.128Z,11.50
2023-03-27T11:42:43.020Z,11.45
2023-03-27T11:45:13.473Z,11.50
2023-03-27T11:47:43.945Z,11.48
2023-03-27T11:50:16.280Z,11.50
2023-03-27T11:52:43.683Z,11.52
2023-03-27T11:55:13.751Z,11.54
2023-03-27T11:57:52.558Z,11.63
2023-03-27T12:00:25.883Z,11.74
2023-03-27T12:02:55.507Z,11.79
2023-03-27T12:05:26.112Z,11.89
2023-03-27T12:07:56.587Z,12.09
2023-03-27T12:10:32.303Z,12.23
2023-03-27T12:13:03.461Z,12.33
2023-03-27T12:15:30.786Z,12.41
2023-03-27T12:18:01.167Z,12.49
2023-03-27T12:20:34.101Z,12.55
2023-03-27T12:23:04.285Z,12.57
2023-03-27T12:25:36.214Z,12.64
2023-03-27T12:28:03.783Z,12.70
2023-03-27T12:30:33.830Z,12.74
2023-03-27T12:33:08.691Z,12.78
2023-03-27T12:35:42.805Z,12.87
2023-03-27T12:38:35.161Z,12.98
2023-03-27T12:41:05.620Z,13.01
2023-03-27T12:43:39.860Z,13.04
2023-03-27T12:46:30.834Z,13.05
2023-03-27T12:48:58.090Z,13.08
2023-03-27T12:51:39.411Z,12.94
2023-03-27T12:54:22.312Z,12.86
2023-03-27T12:57:06.129Z,12.88
2023-03-27T12:59:38.293Z,12.90
2023-03-27T13:02:05.313Z,12.97
2023-03-27T13:04:48.173Z,12.92
2023-03-27T13:07:15.187Z,12.90
2023-03-27T13:09:53.210Z,12.85
2023-03-27T13:12:58.901Z,12.84
2023-03-27T13:15:44.384Z,12.75
2023-03-27T13:18:11.254Z,12.78
2023-03-27T13:20:46.390Z,12.70
2023-03-27T13:23:23.612Z,12.55
2023-03-27T13:26:21.979Z,12.51
2023-03-27T13:31:53.610Z,12.54
2023-03-27T13:34:32.177Z,12.60
2023-03-27T13:37:07.929Z,12.56
2023-03-27T13:39:46.215Z,12.57
2023-03-27T13:42:18.335Z,12.51
2023-03-27T13:44:57.377Z,12.47
2023-03-27T13:47:36.617Z,12.47
2023-03-27T13:50:03.656Z,12.44
2023-03-27T13:52:43.739Z,12.45
2023-03-27T13:55:17.411Z,12.58
2023-03-27T13:57:56.318Z,12.67
2023-03-27T14:00:31.168Z,12.59
2023-03-27T14:03:17.044Z,12.55
2023-03-27T14:06:01.659Z,12.47
2023-03-27T14:08:34.854Z,12.36
2023-03-27T14:11:24.026Z,12.30
2023-03-27T14:14:09.348Z,12.32
2023-03-27T14:16:41.557Z,12.38
2023-03-27T14:19:17.740Z,12.46
2023-03-27T14:22:05.603Z,12.51
2023-03-27T14:24:32.744Z,12.53
2023-03-27T14:27:00.827Z,12.55
2023-03-27T14:29:29.169Z,12.66
2023-03-27T14:32:01.891Z,12.75
2023-03-27T14:34:35.223Z,12.75
2023-03-27T14:37:29.341Z,12.74
2023-03-27T14:39:57.419Z,12.79
2023-03-27T14:42:28.715Z,12.80
2023-03-27T14:45:11.331Z,12.85
2023-03-27T14:47:38.235Z,12.95
2023-03-27T14:50:06.524Z,13.02
2023-03-27T14:52:37.738Z,13.08
2023-03-27T14:55:04.912Z,13.09
2023-03-27T14:57:31.673Z,13.12
2023-03-27T14:59:59.260Z,13.24
2023-03-27T15:02:30.825Z,13.28
2023-03-27T15:05:18.540Z,13.21
2023-03-27T15:07:49.170Z,13.10
2023-03-27T15:10:16.093Z,13.08
2023-03-27T15:12:47.404Z,13.14
2023-03-27T15:15:28.738Z,13.23
2023-03-27T15:18:03.565Z,13.30
2023-03-27T15:20:32.117Z,13.37
2023-03-27T15:23:06.890Z,13.39
2023-03-27T15:25:42.883Z,13.39
2023-03-27T15:28:14.415Z,13.37
2023-03-27T15:30:48.252Z,13.32
2023-03-27T15:33:20.549Z,13.22
2023-03-27T15:35:49.284Z,13.20
2023-03-27T15:38:17.500Z,13.14
2023-03-27T15:40:46.879Z,13.07
2023-03-27T15:43:13.647Z,12.99
2023-03-27T15:45:52.390Z,12.96
2023-03-27T15:48:20.662Z,12.98
2023-03-27T15:50:54.456Z,12.98
2023-03-27T15:53:32.498Z,13.01
2023-03-27T15:56:01.632Z,12.96
2023-03-27T15:58:34.195Z,12.85
2023-03-27T16:01:02.371Z,12.75
2023-03-27T16:03:34.683Z,12.65
2023-03-27T16:06:02.891Z,12.55
2023-03-27T16:08:41.250Z,12.48
2023-03-27T16:11:08.020Z,12.42
2023-03-27T16:13:36.906Z,12.44
2023-03-27T16:16:05.296Z,12.43
2023-03-27T16:18:36.998Z,12.40
2023-03-27T16:21:07.288Z,12.36
2023-03-27T16:23:34.131Z,12.37
2023-03-27T16:26:01.576Z,12.39
2023-03-27T16:28:30.012Z,12.42
2023-03-27T16:30:58.250Z,12.44
2023-03-27T16:33:25.835Z,12.51
2023-03-27T16:35:52.785Z,12.55
2023-03-27T16:38:20.136Z,12.57
2023-03-27T16:40:46.885Z,12.56
2023-03-27T16:43:13.900Z,12.59
2023-03-27T16:45:40.758Z,12.59
2023-03-27T16:48:08.681Z,12.60
2023-03-27T16:50:35.684Z,12.58
2023-03-27T16:53:02.878Z,12.54
2023-03-27T16:55:29.853Z,12.55
2023-03-27T16:57:56.829Z,12.54
2023-03-27T17:00:23.770Z,12.53
2023-03-27T17:02:50.771Z,12.54
2023-03-27T17:05:17.893Z,12.53
2023-03-27T17:07:46.883Z,12.52
2023-03-27T17:10:14.445Z,12.52
2023-03-27T17:12:41.234Z,12.55
2023-03-27T17:15:08.466Z,12.59
2023-03-27T17:17:35.637Z,12.54
2023-03-27T17:20:03.894Z,12.49
2023-03-27T17:22:31.908Z,12.40
2023-03-27T17:25:01.339Z,12.38
2023-03-27T17:27:28.540Z,12.37
2023-03-27T17:29:58.366Z,12.35
2023-03-27T17:32:27.307Z,12.31
2023-03-27T17:34:54.742Z,12.29
2023-03-27T17:37:21.842Z,12.30
2023-03-27T17:39:49.005Z,12.28
2023-03-27T17:42:15.952Z,12.27
2023-03-27T17:44:43.017Z,12.23
2023-03-27T17:47:09.765Z,12.22
2023-03-27T17:49:36.703Z,12.21
2023-03-27T17:52:08.407Z,12.19
2023-03-27T17:54:35.364Z,12.15
2023-03-27T17:57:02.466Z,12.13
2023-03-27T17:59:31.616Z,12.07
2023-03-27T18:01:58.651Z,12.04
2023-03-27T18:04:26.154Z,11.94
2023-03-27T18:06:53.265Z,11.89
2023-03-27T18:09:19.992Z,11.85
2023-03-27T18:11:48.041Z,11.79
2023-03-27T18:14:15.853Z,11.76
2023-03-27T18:16:46.315Z,11.71
2023-03-27T18:19:13.817Z,11.67
2023-03-27T18:21:40.988Z,11.64
2023-03-27T18:24:08.348Z,11.62
2023-03-27T18:26:35.500Z,11.59
2023-03-27T18:29:02.932Z,11.56
2023-03-27T18:31:29.984Z,11.51
2023-03-27T18:33:57.095Z,11.44
2023-03-27T18:36:23.990Z,11.41
2023-03-27T18:38:52.347Z,11.40
2023-03-27T18:41:19.563Z,11.39
2023-03-27T18:43:47.120Z,11.39
2023-03-27T18:46:17.338Z,11.38
2023-03-27T18:48:45.480Z,11.38
2023-03-27T18:51:13.058Z,11.37
2023-03-27T18:53:40.088Z,11.34
2023-03-27T18:56:08.314Z,11.34
2023-03-27T18:58:36.227Z,11.29
2023-03-27T19:01:08.668Z,11.27
2023-03-27T19:03:36.749Z,11.25
2023-03-27T19:06:08.022Z,11.22
2023-03-27T19:08:38.338Z,11.21
2023-03-27T19:11:05.904Z,11.18
2023-03-27T19:13:32.950Z,11.13
2023-03-27T19:16:00.292Z,11.13
2023-03-27T19:18:30.306Z,11.12
2023-03-27T19:21:01.300Z,11.10
2023-03-27T19:23:28.744Z,11.04
2023-03-27T19:25:55.815Z,11.02
2023-03-27T19:28:22.872Z,10.99
2023-03-27T19:30:53.156Z,10.98
2023-03-27T19:33:20.238Z,10.97
2023-03-27T19:35:47.213Z,10.95
2023-03-27T19:38:14.453Z,10.91
2023-03-27T19:40:41.571Z,10.88
2023-03-27T19:43:08.827Z,10.87
2023-03-27T19:45:35.910Z,10.87
2023-03-27T19:48:02.892Z,10.82
2023-03-27T19:50:30.088Z,10.79
2023-03-27T19:53:08.160Z,10.80
2023-03-27T19:55:36.077Z,10.78
2023-03-27T19:58:03.046Z,10.78
2023-03-27T20:00:31.629Z,10.79
2023-03-27T20:03:00.023Z,10.78
2023-03-27T20:05:28.354Z,10.77
2023-03-27T20:07:55.519Z,10.75
2023-03-27T20:10:22.789Z,10.73
2023-03-27T20:12:49.759Z,10.69
2023-03-27T20:15:16.983Z,10.66
2023-03-27T20:17:44.049Z,10.62
2023-03-27T20:20:11.748Z,10.58
2023-03-27T20:22:50.023Z,10.55
2023-03-27T20:25:21.713Z,10.54
2023-03-27T20:27:48.907Z,10.54
2023-03-27T20:30:18.499Z,10.54
2023-03-27T20:32:45.861Z,10.59
2023-03-27T20:35:22.870Z,10.56
2023-03-27T20:37:56.587Z,10.54
2023-03-27T20:40:24.329Z,10.49
2023-03-27T20:43:03.574Z,10.43
2023-03-27T20:45:31.441Z,10.38
2023-03-27T20:48:01.791Z,10.33
2023-03-27T20:50:31.503Z,10.29
2023-03-27T20:52:58.625Z,10.26
2023-03-27T20:55:33.545Z,10.25
2023-03-27T20:58:03.428Z,10.23
2023-03-27T21:00:30.755Z,10.20
2023-03-27T21:02:57.960Z,10.18
2023-03-27T21:05:25.255Z,10.13
2023-03-27T21:07:52.901Z,10.12
2023-03-27T21:10:21.800Z,10.08
2023-03-27T21:12:49.158Z,10.04
2023-03-27T21:15:16.297Z,9.98
2023-03-27T21:17:43.246Z,9.97
2023-03-27T21:20:10.661Z,9.96
2023-03-27T21:22:37.676Z,9.93
2023-03-27T21:25:05.063Z,9.91
2023-03-27T21:27:32.375Z,9.88
2023-03-27T21:29:59.398Z,9.86
2023-03-27T21:32:26.818Z,9.84
2023-03-27T21:34:53.961Z,9.82
2023-03-27T21:37:21.027Z,9.81
2023-03-27T21:39:55.509Z,9.79
2023-03-27T21:42:22.516Z,9.78
2023-03-27T21:44:53.793Z,9.76
2023-03-27T21:47:22.287Z,9.75
2023-03-27T21:49:49.267Z,9.71
2023-03-27T21:52:16.164Z,9.67
2023-03-27T21:54:53.028Z,9.68
2023-03-27T21:57:27.217Z,9.68
2023-03-27T21:59:54.108Z,9.65
2023-03-27T22:02:21.102Z,9.61
2023-03-27T22:04:48.031Z,9.59
2023-03-27T22:07:15.164Z,9.56
2023-03-27T22:09:43.724Z,9.52
2023-03-27T22:12:10.582Z,9.50
2023-03-27T22:14:40.809Z,9.45
2023-03-27T22:17:11.221Z,9.44
2023-03-27T22:19:38.568Z,9.44
2023-03-27T22:22:05.561Z,9.46
2023-03-27T22:24:32.557Z,9.47
2023-03-27T22:26:59.426Z,9.43
2023-03-27T22:29:26.679Z,9.44
2023-03-27T22:31:53.780Z,9.42
2023-03-27T22:34:24.103Z,9.41
2023-03-27T22:37:33.033Z,9.39
2023-03-27T22:39:59.937Z,9.39
2023-03-27T22:42:29.498Z,9.37
2023-03-27T22:44:56.303Z,9.36
2023-03-27T22:47:23.036Z,9.37
2023-03-27T22:49:50.136Z,9.35
2023-03-27T22:52:17.156Z,9.35
2023-03-27T22:54:43.917Z,9.31
2023-03-27T22:57:10.809Z,9.30
2023-03-27T22:59:37.592Z,9.26
2023-03-27T23:02:04.423Z,9.28
2023-03-27T23:04:31.605Z,9.27
2023-03-27T23:07:00.746Z,9.28
2023-03-27T23:09:27.521Z,9.28
2023-03-27T23:11:54.269Z,9.28
2023-03-27T23:14:21.002Z,9.27
2023-03-27T23:16:47.778Z,9.24
2023-03-27T23:19:14.650Z,9.24
2023-03-27T23:21:42.106Z,9.25
2023-03-27T23:24:08.909Z,9.24
2023-03-27T23:26:35.639Z,9.21
2023-03-27T23:29:02.382Z,9.18
2023-03-27T23:31:29.420Z,9.17
2023-03-27T23:33:56.206Z,9.17
2023-03-27T23:36:23.947Z,9.16
2023-03-27T23:38:51.871Z,9.16
2023-03-27T23:41:19.173Z,9.16
2023-03-27T23:43:46.216Z,9.16
2023-03-27T23:46:15.882Z,9.15
2023-03-27T23:48:43.754Z,9.11
2023-03-27T23:51:11.377Z,9.09
2023-03-27T23:53:38.120Z,9.06
2023-03-27T23:56:05.181Z,9.05
2023-03-27T23:58:34.999Z,9.04
